sensor_id;sensor_type;location;lat;lon;timestamp;temperature;humidity
13332;DHT22;6735;51.456;12.626;2022-11-06T00:00:24;4.20;87.80
13332;DHT22;6735;51.456;12.626;2022-11-06T00:02:49;4.20;87.90
13332;DHT22;6735;51.456;12.626;2022-11-06T00:05:15;4.20;87.90
13332;DHT22;6735;51.456;12.626;2022-11-06T00:07:59;4.20;88.00
13332;DHT22;6735;51.456;12.626;2022-11-06T00:10:24;4.20;88.00
13332;DHT22;6735;51.456;12.626;2022-11-06T00:12:50;4.20;88.00
13332;DHT22;6735;51.456;12.626;2022-11-06T00:15:16;4.20;88.00
13332;DHT22;6735;51.456;12.626;2022-11-06T00:17:41;4.20;88.00
13332;DHT22;6735;51.456;12.626;2022-11-06T00:20:08;4.30;88.10
13332;DHT22;6735;51.456;12.626;2022-11-06T00:22:35;4.30;88.20
13332;DHT22;6735;51.456;12.626;2022-11-06T00:25:01;4.30;88.20
13332;DHT22;6735;51.456;12.626;2022-11-06T00:27:27;4.40;88.30
13332;DHT22;6735;51.456;12.626;2022-11-06T00:29:53;4.40;88.30
13332;DHT22;6735;51.456;12.626;2022-11-06T00:32:18;4.40;88.30
13332;DHT22;6735;51.456;12.626;2022-11-06T00:34:44;4.40;88.20
13332;DHT22;6735;51.456;12.626;2022-11-06T00:37:09;4.40;88.20
13332;DHT22;6735;51.456;12.626;2022-11-06T00:39:34;4.50;88.30
13332;DHT22;6735;51.456;12.626;2022-11-06T00:42:00;4.40;88.30
13332;DHT22;6735;51.456;12.626;2022-11-06T00:44:25;4.40;88.10
13332;DHT22;6735;51.456;12.626;2022-11-06T00:46:51;4.40;88.10
13332;DHT22;6735;51.456;12.626;2022-11-06T00:49:17;4.40;88.00
13332;DHT22;6735;51.456;12.626;2022-11-06T00:51:42;4.40;88.00
13332;DHT22;6735;51.456;12.626;2022-11-06T00:54:12;4.40;88.10
13332;DHT22;6735;51.456;12.626;2022-11-06T00:56:37;4.40;88.00
13332;DHT22;6735;51.456;12.626;2022-11-06T00:59:05;4.30;87.80
13332;DHT22;6735;51.456;12.626;2022-11-06T01:01:35;4.30;87.80
13332;DHT22;6735;51.456;12.626;2022-11-06T01:04:19;4.20;87.80
13332;DHT22;6735;51.456;12.626;2022-11-06T01:06:51;4.20;87.80
13332;DHT22;6735;51.456;12.626;2022-11-06T01:09:20;4.20;87.80
13332;DHT22;6735;51.456;12.626;2022-11-06T01:11:49;4.20;87.80
13332;DHT22;6735;51.456;12.626;2022-11-06T01:14:16;4.10;87.80
13332;DHT22;6735;51.456;12.626;2022-11-06T01:16:42;4.10;87.80
13332;DHT22;6735;51.456;12.626;2022-11-06T01:19:08;4.10;87.80
13332;DHT22;6735;51.456;12.626;2022-11-06T01:21:38;4.00;87.70
13332;DHT22;6735;51.456;12.626;2022-11-06T01:24:07;4.10;87.80
13332;DHT22;6735;51.456;12.626;2022-11-06T01:26:34;4.00;87.70
13332;DHT22;6735;51.456;12.626;2022-11-06T01:29:00;4.00;87.80
13332;DHT22;6735;51.456;12.626;2022-11-06T01:31:27;4.00;87.80
13332;DHT22;6735;51.456;12.626;2022-11-06T01:33:55;4.00;87.80
13332;DHT22;6735;51.456;12.626;2022-11-06T01:36:21;3.90;87.80
13332;DHT22;6735;51.456;12.626;2022-11-06T01:38:49;3.90;87.80
13332;DHT22;6735;51.456;12.626;2022-11-06T01:41:20;3.90;87.60
13332;DHT22;6735;51.456;12.626;2022-11-06T01:43:51;3.90;87.80
13332;DHT22;6735;51.456;12.626;2022-11-06T01:46:20;3.90;87.90
13332;DHT22;6735;51.456;12.626;2022-11-06T01:49:18;3.90;87.80
13332;DHT22;6735;51.456;12.626;2022-11-06T01:51:44;3.80;87.70
13332;DHT22;6735;51.456;12.626;2022-11-06T01:54:12;3.80;87.80
13332;DHT22;6735;51.456;12.626;2022-11-06T01:56:39;3.80;87.80
13332;DHT22;6735;51.456;12.626;2022-11-06T01:59:06;3.80;87.80
13332;DHT22;6735;51.456;12.626;2022-11-06T02:01:33;3.80;87.90
13332;DHT22;6735;51.456;12.626;2022-11-06T02:06:40;3.80;88.00
13332;DHT22;6735;51.456;12.626;2022-11-06T02:09:05;3.80;87.90
13332;DHT22;6735;51.456;12.626;2022-11-06T02:11:40;3.80;88.00
13332;DHT22;6735;51.456;12.626;2022-11-06T02:14:30;3.80;88.10
13332;DHT22;6735;51.456;12.626;2022-11-06T02:17:07;3.90;88.10
13332;DHT22;6735;51.456;12.626;2022-11-06T02:28:14;3.90;88.10
13332;DHT22;6735;51.456;12.626;2022-11-06T02:30:44;3.90;88.00
13332;DHT22;6735;51.456;12.626;2022-11-06T02:33:14;3.90;87.90
13332;DHT22;6735;51.456;12.626;2022-11-06T02:35:59;3.80;88.00
13332;DHT22;6735;51.456;12.626;2022-11-06T02:38:39;3.80;88.00
13332;DHT22;6735;51.456;12.626;2022-11-06T02:41:13;3.80;88.10
13332;DHT22;6735;51.456;12.626;2022-11-06T02:43:43;3.80;88.30
13332;DHT22;6735;51.456;12.626;2022-11-06T02:46:19;3.80;88.40
13332;DHT22;6735;51.456;12.626;2022-11-06T02:48:58;3.80;88.60
13332;DHT22;6735;51.456;12.626;2022-11-06T02:51:27;3.80;88.70
13332;DHT22;6735;51.456;12.626;2022-11-06T02:53:57;3.90;89.20
13332;DHT22;6735;51.456;12.626;2022-11-06T02:56:27;3.90;89.40
13332;DHT22;6735;51.456;12.626;2022-11-06T02:58:56;3.90;89.40
13332;DHT22;6735;51.456;12.626;2022-11-06T03:01:29;3.90;89.60
13332;DHT22;6735;51.456;12.626;2022-11-06T03:04:02;3.90;89.30
13332;DHT22;6735;51.456;12.626;2022-11-06T03:06:32;4.00;89.80
13332;DHT22;6735;51.456;12.626;2022-11-06T03:09:09;4.00;89.50
13332;DHT22;6735;51.456;12.626;2022-11-06T03:11:37;4.00;89.40
13332;DHT22;6735;51.456;12.626;2022-11-06T03:14:17;4.00;89.30
13332;DHT22;6735;51.456;12.626;2022-11-06T03:19:53;4.00;89.40
13332;DHT22;6735;51.456;12.626;2022-11-06T03:22:30;4.00;89.30
13332;DHT22;6735;51.456;12.626;2022-11-06T03:25:35;3.90;89.30
13332;DHT22;6735;51.456;12.626;2022-11-06T03:28:09;3.90;89.30
13332;DHT22;6735;51.456;12.626;2022-11-06T03:30:40;3.90;89.30
13332;DHT22;6735;51.456;12.626;2022-11-06T03:33:12;3.90;89.30
13332;DHT22;6735;51.456;12.626;2022-11-06T03:35:43;3.90;89.20
13332;DHT22;6735;51.456;12.626;2022-11-06T03:40:46;3.90;89.10
13332;DHT22;6735;51.456;12.626;2022-11-06T03:43:15;3.90;89.10
13332;DHT22;6735;51.456;12.626;2022-11-06T03:45:43;3.80;89.10
13332;DHT22;6735;51.456;12.626;2022-11-06T03:48:20;3.80;89.10
13332;DHT22;6735;51.456;12.626;2022-11-06T03:53:28;3.80;89.10
13332;DHT22;6735;51.456;12.626;2022-11-06T03:56:09;3.80;89.00
13332;DHT22;6735;51.456;12.626;2022-11-06T03:58:39;3.80;89.00
13332;DHT22;6735;51.456;12.626;2022-11-06T06:27:47;3.70;89.00
13332;DHT22;6735;51.456;12.626;2022-11-06T06:30:13;3.80;89.90
13332;DHT22;6735;51.456;12.626;2022-11-06T06:32:38;3.80;89.90
13332;DHT22;6735;51.456;12.626;2022-11-06T06:35:04;3.90;89.90
13332;DHT22;6735;51.456;12.626;2022-11-06T06:37:30;3.90;89.90
13332;DHT22;6735;51.456;12.626;2022-11-06T06:39:55;3.90;89.90
13332;DHT22;6735;51.456;12.626;2022-11-06T06:42:21;3.90;89.90
13332;DHT22;6735;51.456;12.626;2022-11-06T06:44:47;3.90;89.90
13332;DHT22;6735;51.456;12.626;2022-11-06T06:47:12;4.00;90.00
13332;DHT22;6735;51.456;12.626;2022-11-06T06:49:41;4.00;90.10
13332;DHT22;6735;51.456;12.626;2022-11-06T06:52:07;4.10;90.20
13332;DHT22;6735;51.456;12.626;2022-11-06T06:54:32;4.10;90.30
13332;DHT22;6735;51.456;12.626;2022-11-06T06:56:58;4.20;90.40
13332;DHT22;6735;51.456;12.626;2022-11-06T06:59:24;4.20;90.50
13332;DHT22;6735;51.456;12.626;2022-11-06T07:01:49;4.40;90.70
13332;DHT22;6735;51.456;12.626;2022-11-06T07:04:15;4.50;90.80
13332;DHT22;6735;51.456;12.626;2022-11-06T07:06:40;4.60;90.80
13332;DHT22;6735;51.456;12.626;2022-11-06T07:09:06;4.70;90.90
13332;DHT22;6735;51.456;12.626;2022-11-06T07:11:32;4.80;91.00
13332;DHT22;6735;51.456;12.626;2022-11-06T07:13:57;4.90;91.00
13332;DHT22;6735;51.456;12.626;2022-11-06T07:16:23;5.00;91.00
13332;DHT22;6735;51.456;12.626;2022-11-06T07:18:49;5.10;90.90
13332;DHT22;6735;51.456;12.626;2022-11-06T07:21:15;5.40;90.80
13332;DHT22;6735;51.456;12.626;2022-11-06T07:23:40;5.70;90.30
13332;DHT22;6735;51.456;12.626;2022-11-06T07:26:06;6.00;89.80
13332;DHT22;6735;51.456;12.626;2022-11-06T07:28:32;6.20;89.00
13332;DHT22;6735;51.456;12.626;2022-11-06T10:52:10;6.50;88.20
13332;DHT22;6735;51.456;12.626;2022-11-06T10:57:38;10.60;71.90
13332;DHT22;6735;51.456;12.626;2022-11-06T11:00:12;10.60;72.80
13332;DHT22;6735;51.456;12.626;2022-11-06T11:02:40;10.60;72.10
13332;DHT22;6735;51.456;12.626;2022-11-06T11:05:15;10.60;72.20
13332;DHT22;6735;51.456;12.626;2022-11-06T11:07:44;10.60;71.90
13332;DHT22;6735;51.456;12.626;2022-11-06T11:10:29;10.70;72.40
13332;DHT22;6735;51.456;12.626;2022-11-06T11:12:57;10.70;71.40
13332;DHT22;6735;51.456;12.626;2022-11-06T11:15:32;10.70;71.40
13332;DHT22;6735;51.456;12.626;2022-11-06T11:18:29;10.80;71.90
13332;DHT22;6735;51.456;12.626;2022-11-06T11:21:24;10.90;69.80
13332;DHT22;6735;51.456;12.626;2022-11-06T11:24:09;10.90;70.20
13332;DHT22;6735;51.456;12.626;2022-11-06T11:26:42;10.90;69.60
13332;DHT22;6735;51.456;12.626;2022-11-06T11:29:43;11.00;70.20
13332;DHT22;6735;51.456;12.626;2022-11-06T11:32:13;10.90;69.10
13332;DHT22;6735;51.456;12.626;2022-11-06T11:34:44;11.00;69.00
13332;DHT22;6735;51.456;12.626;2022-11-06T11:39:50;11.00;67.90
13332;DHT22;6735;51.456;12.626;2022-11-06T11:42:25;11.10;68.80
13332;DHT22;6735;51.456;12.626;2022-11-06T11:45:11;11.10;69.00
13332;DHT22;6735;51.456;12.626;2022-11-06T11:47:39;11.10;67.90
13332;DHT22;6735;51.456;12.626;2022-11-06T11:50:25;11.10;68.70
13332;DHT22;6735;51.456;12.626;2022-11-06T11:53:04;11.10;66.90
13332;DHT22;6735;51.456;12.626;2022-11-06T11:55:36;11.10;66.80
13332;DHT22;6735;51.456;12.626;2022-11-06T11:58:20;11.20;67.10
13332;DHT22;6735;51.456;12.626;2022-11-06T12:00:57;11.20;67.90
13332;DHT22;6735;51.456;12.626;2022-11-06T12:03:27;11.20;66.80
13332;DHT22;6735;51.456;12.626;2022-11-06T12:05:53;11.20;67.10
13332;DHT22;6735;51.456;12.626;2022-11-06T16:00:17;11.30;66.90
13332;DHT22;6735;51.456;12.626;2022-11-06T16:05:18;7.50;77.90
13332;DHT22;6735;51.456;12.626;2022-11-06T16:07:45;7.50;78.10
13332;DHT22;6735;51.456;12.626;2022-11-06T16:10:16;7.40;78.30
13332;DHT22;6735;51.456;12.626;2022-11-06T16:12:43;7.30;78.50
13332;DHT22;6735;51.456;12.626;2022-11-06T16:21:06;7.10;79.00
13332;DHT22;6735;51.456;12.626;2022-11-06T16:23:41;7.00;79.30
13332;DHT22;6735;51.456;12.626;2022-11-06T16:26:09;7.00;79.30
13332;DHT22;6735;51.456;12.626;2022-11-06T16:28:44;6.90;79.60
13332;DHT22;6735;51.456;12.626;2022-11-06T16:31:21;6.90;79.70
13332;DHT22;6735;51.456;12.626;2022-11-06T16:33:58;6.80;80.00
13332;DHT22;6735;51.456;12.626;2022-11-06T16:36:26;6.80;79.80
13332;DHT22;6735;51.456;12.626;2022-11-06T16:38:52;6.70;80.10
13332;DHT22;6735;51.456;12.626;2022-11-06T16:41:20;6.70;80.10
13332;DHT22;6735;51.456;12.626;2022-11-06T16:44:25;6.60;80.30
13332;DHT22;6735;51.456;12.626;2022-11-06T16:49:37;6.60;80.20
13332;DHT22;6735;51.456;12.626;2022-11-06T16:55:05;6.50;80.50
13332;DHT22;6735;51.456;12.626;2022-11-06T17:03:17;6.40;80.90
13332;DHT22;6735;51.456;12.626;2022-11-06T17:05:37;6.30;81.00
13332;DHT22;6735;51.456;12.626;2022-11-06T17:08:36;6.30;81.10
13332;DHT22;6735;51.456;12.626;2022-11-06T17:13:39;6.20;81.20
13332;DHT22;6735;51.456;12.626;2022-11-06T17:16:10;6.10;81.50
13332;DHT22;6735;51.456;12.626;2022-11-06T17:18:37;6.10;81.70
13332;DHT22;6735;51.456;12.626;2022-11-06T17:21:06;6.10;81.80
13332;DHT22;6735;51.456;12.626;2022-11-06T17:23:32;6.00;81.70
13332;DHT22;6735;51.456;12.626;2022-11-06T17:28:28;5.90;81.60
13332;DHT22;6735;51.456;12.626;2022-11-06T17:30:54;5.90;81.90
13332;DHT22;6735;51.456;12.626;2022-11-06T17:33:20;5.90;82.00
13332;DHT22;6735;51.456;12.626;2022-11-06T17:35:46;5.80;82.00
13332;DHT22;6735;51.456;12.626;2022-11-06T17:38:13;5.80;82.10
13332;DHT22;6735;51.456;12.626;2022-11-06T17:40:40;5.70;82.20
13332;DHT22;6735;51.456;12.626;2022-11-06T17:43:06;5.70;82.90
13332;DHT22;6735;51.456;12.626;2022-11-06T17:45:31;5.60;82.90
13332;DHT22;6735;51.456;12.626;2022-11-06T17:47:57;5.60;82.90
13332;DHT22;6735;51.456;12.626;2022-11-06T17:50:23;5.60;82.80
13332;DHT22;6735;51.456;12.626;2022-11-06T17:52:48;5.60;82.80
13332;DHT22;6735;51.456;12.626;2022-11-06T17:55:14;5.60;82.80
13332;DHT22;6735;51.456;12.626;2022-11-06T17:57:40;5.50;83.00
13332;DHT22;6735;51.456;12.626;2022-11-06T18:00:06;5.50;83.00
13332;DHT22;6735;51.456;12.626;2022-11-06T18:02:34;5.50;83.20
13332;DHT22;6735;51.456;12.626;2022-11-06T18:04:59;5.50;83.50
13332;DHT22;6735;51.456;12.626;2022-11-06T18:07:25;5.40;83.50
13332;DHT22;6735;51.456;12.626;2022-11-06T18:09:50;5.40;83.60
13332;DHT22;6735;51.456;12.626;2022-11-06T18:12:16;5.40;83.50
13332;DHT22;6735;51.456;12.626;2022-11-06T18:14:42;5.40;83.60
13332;DHT22;6735;51.456;12.626;2022-11-06T18:17:07;5.40;83.70
13332;DHT22;6735;51.456;12.626;2022-11-06T18:19:33;5.50;83.60
13332;DHT22;6735;51.456;12.626;2022-11-06T18:21:59;5.50;83.70
13332;DHT22;6735;51.456;12.626;2022-11-06T18:24:24;5.40;83.60
13332;DHT22;6735;51.456;12.626;2022-11-06T18:26:50;5.40;83.80
13332;DHT22;6735;51.456;12.626;2022-11-06T18:29:16;5.40;83.80
13332;DHT22;6735;51.456;12.626;2022-11-06T18:31:41;5.50;83.90
13332;DHT22;6735;51.456;12.626;2022-11-06T18:34:10;5.50;83.80
13332;DHT22;6735;51.456;12.626;2022-11-06T18:36:36;5.50;83.80
13332;DHT22;6735;51.456;12.626;2022-11-06T18:39:05;5.50;83.90
13332;DHT22;6735;51.456;12.626;2022-11-06T18:41:31;5.50;83.90
13332;DHT22;6735;51.456;12.626;2022-11-06T18:43:57;5.50;84.10
13332;DHT22;6735;51.456;12.626;2022-11-06T18:46:24;5.60;84.20
13332;DHT22;6735;51.456;12.626;2022-11-06T18:48:51;5.60;84.30
13332;DHT22;6735;51.456;12.626;2022-11-06T18:51:23;5.60;84.20
13332;DHT22;6735;51.456;12.626;2022-11-06T18:53:54;5.60;84.20
13332;DHT22;6735;51.456;12.626;2022-11-06T18:56:20;5.60;84.10
13332;DHT22;6735;51.456;12.626;2022-11-06T18:58:45;5.70;84.30
13332;DHT22;6735;51.456;12.626;2022-11-06T19:01:13;5.70;84.30
13332;DHT22;6735;51.456;12.626;2022-11-06T19:03:40;5.70;84.20
13332;DHT22;6735;51.456;12.626;2022-11-06T19:06:08;5.70;84.20
13332;DHT22;6735;51.456;12.626;2022-11-06T19:08:34;5.80;84.30
13332;DHT22;6735;51.456;12.626;2022-11-06T19:11:02;5.80;84.20
13332;DHT22;6735;51.456;12.626;2022-11-06T19:13:28;5.80;84.20
13332;DHT22;6735;51.456;12.626;2022-11-06T19:15:56;5.80;84.30
13332;DHT22;6735;51.456;12.626;2022-11-06T19:18:21;5.80;84.20
13332;DHT22;6735;51.456;12.626;2022-11-06T19:20:47;5.80;84.40
13332;DHT22;6735;51.456;12.626;2022-11-06T19:23:13;5.80;84.30
13332;DHT22;6735;51.456;12.626;2022-11-06T19:25:40;5.80;84.40
13332;DHT22;6735;51.456;12.626;2022-11-06T19:28:05;5.80;84.40
13332;DHT22;6735;51.456;12.626;2022-11-06T19:30:31;5.80;84.40
13332;DHT22;6735;51.456;12.626;2022-11-06T19:32:57;5.70;84.50
13332;DHT22;6735;51.456;12.626;2022-11-06T19:35:22;5.70;84.50
13332;DHT22;6735;51.456;12.626;2022-11-06T19:37:48;5.70;84.70
13332;DHT22;6735;51.456;12.626;2022-11-06T19:40:13;5.80;84.90
13332;DHT22;6735;51.456;12.626;2022-11-06T19:42:39;5.70;85.00
13332;DHT22;6735;51.456;12.626;2022-11-06T19:45:05;5.70;84.90
13332;DHT22;6735;51.456;12.626;2022-11-06T19:47:33;5.80;85.00
13332;DHT22;6735;51.456;12.626;2022-11-06T19:49:58;5.70;85.00
13332;DHT22;6735;51.456;12.626;2022-11-06T19:52:24;5.80;84.90
13332;DHT22;6735;51.456;12.626;2022-11-06T19:54:50;5.80;85.20
13332;DHT22;6735;51.456;12.626;2022-11-06T19:57:15;5.80;85.20
13332;DHT22;6735;51.456;12.626;2022-11-06T19:59:41;5.80;85.10
13332;DHT22;6735;51.456;12.626;2022-11-06T20:02:10;5.80;85.00
13332;DHT22;6735;51.456;12.626;2022-11-06T20:04:37;5.90;85.10
13332;DHT22;6735;51.456;12.626;2022-11-06T20:07:02;5.90;85.00
13332;DHT22;6735;51.456;12.626;2022-11-06T20:09:28;5.90;85.10
13332;DHT22;6735;51.456;12.626;2022-11-06T20:11:54;5.90;85.10
13332;DHT22;6735;51.456;12.626;2022-11-06T20:14:19;5.90;85.00
13332;DHT22;6735;51.456;12.626;2022-11-06T20:16:46;5.90;85.10
13332;DHT22;6735;51.456;12.626;2022-11-06T20:19:12;5.90;85.10
13332;DHT22;6735;51.456;12.626;2022-11-06T20:21:38;5.90;85.20
13332;DHT22;6735;51.456;12.626;2022-11-06T20:24:03;5.90;85.10
13332;DHT22;6735;51.456;12.626;2022-11-06T20:26:29;5.90;85.20
13332;DHT22;6735;51.456;12.626;2022-11-06T20:28:55;5.90;85.30
13332;DHT22;6735;51.456;12.626;2022-11-06T20:31:21;5.90;85.20
13332;DHT22;6735;51.456;12.626;2022-11-06T20:33:48;5.90;85.20
13332;DHT22;6735;51.456;12.626;2022-11-06T20:36:17;6.00;85.30
13332;DHT22;6735;51.456;12.626;2022-11-06T20:38:44;6.00;85.60
13332;DHT22;6735;51.456;12.626;2022-11-06T20:41:10;6.00;86.00
13332;DHT22;6735;51.456;12.626;2022-11-06T20:43:38;6.10;86.10
13332;DHT22;6735;51.456;12.626;2022-11-06T20:46:03;6.10;86.10
13332;DHT22;6735;51.456;12.626;2022-11-06T20:48:30;6.10;86.10
13332;DHT22;6735;51.456;12.626;2022-11-06T20:51:05;6.10;86.30
13332;DHT22;6735;51.456;12.626;2022-11-06T20:53:31;6.20;86.20
13332;DHT22;6735;51.456;12.626;2022-11-06T20:55:58;6.20;86.40
13332;DHT22;6735;51.456;12.626;2022-11-06T20:58:25;6.20;86.40
13332;DHT22;6735;51.456;12.626;2022-11-06T21:00:58;6.30;86.60
13332;DHT22;6735;51.456;12.626;2022-11-06T21:03:23;6.30;86.60
13332;DHT22;6735;51.456;12.626;2022-11-06T21:05:49;6.40;86.40
13332;DHT22;6735;51.456;12.626;2022-11-06T21:08:14;6.40;86.50
13332;DHT22;6735;51.456;12.626;2022-11-06T21:10:40;6.40;86.50
13332;DHT22;6735;51.456;12.626;2022-11-06T21:13:05;6.40;86.60
13332;DHT22;6735;51.456;12.626;2022-11-06T21:15:31;6.50;86.60
13332;DHT22;6735;51.456;12.626;2022-11-06T21:17:56;6.50;86.50
13332;DHT22;6735;51.456;12.626;2022-11-06T21:20:22;6.60;85.50
13332;DHT22;6735;51.456;12.626;2022-11-06T21:22:47;6.70;85.50
13332;DHT22;6735;51.456;12.626;2022-11-06T21:25:13;6.70;86.20
13332;DHT22;6735;51.456;12.626;2022-11-06T21:27:38;6.70;86.20
13332;DHT22;6735;51.456;12.626;2022-11-06T21:30:04;6.70;86.30
13332;DHT22;6735;51.456;12.626;2022-11-06T21:32:29;6.70;86.40
13332;DHT22;6735;51.456;12.626;2022-11-06T21:34:55;6.70;86.50
13332;DHT22;6735;51.456;12.626;2022-11-06T21:37:20;6.70;86.50
13332;DHT22;6735;51.456;12.626;2022-11-06T21:39:57;6.70;86.50
13332;DHT22;6735;51.456;12.626;2022-11-06T21:42:23;6.70;86.40
13332;DHT22;6735;51.456;12.626;2022-11-06T21:44:48;6.70;86.30
13332;DHT22;6735;51.456;12.626;2022-11-06T21:47:14;6.70;86.20
13332;DHT22;6735;51.456;12.626;2022-11-06T21:49:39;6.80;86.20
13332;DHT22;6735;51.456;12.626;2022-11-06T21:52:05;6.70;86.20
13332;DHT22;6735;51.456;12.626;2022-11-06T21:54:48;6.80;86.20
13332;DHT22;6735;51.456;12.626;2022-11-06T21:57:32;6.80;86.10
13332;DHT22;6735;51.456;12.626;2022-11-06T21:59:58;6.80;86.10
13332;DHT22;6735;51.456;12.626;2022-11-06T22:02:23;6.80;86.10
13332;DHT22;6735;51.456;12.626;2022-11-06T22:04:49;6.80;86.10
13332;DHT22;6735;51.456;12.626;2022-11-06T22:07:14;6.80;86.10
13332;DHT22;6735;51.456;12.626;2022-11-06T22:09:40;6.80;86.10
13332;DHT22;6735;51.456;12.626;2022-11-06T22:12:05;6.80;86.10
13332;DHT22;6735;51.456;12.626;2022-11-06T22:14:31;6.80;86.10
13332;DHT22;6735;51.456;12.626;2022-11-06T22:16:57;6.80;86.10
13332;DHT22;6735;51.456;12.626;2022-11-06T22:19:22;6.90;86.00
13332;DHT22;6735;51.456;12.626;2022-11-06T22:21:48;6.90;85.90
13332;DHT22;6735;51.456;12.626;2022-11-06T22:24:13;6.90;85.90
13332;DHT22;6735;51.456;12.626;2022-11-06T22:26:39;6.90;85.80
13332;DHT22;6735;51.456;12.626;2022-11-06T22:29:07;6.90;85.70
13332;DHT22;6735;51.456;12.626;2022-11-06T22:31:34;7.00;85.80
13332;DHT22;6735;51.456;12.626;2022-11-06T22:33:59;7.00;85.80
13332;DHT22;6735;51.456;12.626;2022-11-06T22:36:25;7.00;85.80
13332;DHT22;6735;51.456;12.626;2022-11-06T22:38:51;7.00;85.80
13332;DHT22;6735;51.456;12.626;2022-11-06T22:41:19;7.10;85.80
13332;DHT22;6735;51.456;12.626;2022-11-06T22:43:45;7.10;85.80
13332;DHT22;6735;51.456;12.626;2022-11-06T22:46:13;7.10;85.80
13332;DHT22;6735;51.456;12.626;2022-11-06T22:48:38;7.10;85.80
13332;DHT22;6735;51.456;12.626;2022-11-06T22:51:06;7.10;85.80
13332;DHT22;6735;51.456;12.626;2022-11-06T22:53:32;7.20;85.80
13332;DHT22;6735;51.456;12.626;2022-11-06T22:55:58;7.20;85.80
13332;DHT22;6735;51.456;12.626;2022-11-06T22:58:24;7.20;85.80
13332;DHT22;6735;51.456;12.626;2022-11-06T23:00:51;7.30;85.80
13332;DHT22;6735;51.456;12.626;2022-11-06T23:03:18;7.30;85.80
13332;DHT22;6735;51.456;12.626;2022-11-06T23:05:44;7.30;85.90
13332;DHT22;6735;51.456;12.626;2022-11-06T23:08:09;7.30;85.90
13332;DHT22;6735;51.456;12.626;2022-11-06T23:10:36;7.30;85.90
13332;DHT22;6735;51.456;12.626;2022-11-06T23:13:02;7.40;86.00
13332;DHT22;6735;51.456;12.626;2022-11-06T23:15:28;7.40;85.90
13332;DHT22;6735;51.456;12.626;2022-11-06T23:17:54;7.40;85.90
13332;DHT22;6735;51.456;12.626;2022-11-06T23:20:20;7.40;85.80
13332;DHT22;6735;51.456;12.626;2022-11-06T23:22:46;7.50;85.70
13332;DHT22;6735;51.456;12.626;2022-11-06T23:25:12;7.60;85.80
13332;DHT22;6735;51.456;12.626;2022-11-06T23:27:40;7.60;85.70
13332;DHT22;6735;51.456;12.626;2022-11-06T23:30:06;7.60;85.70
13332;DHT22;6735;51.456;12.626;2022-11-06T23:32:34;7.70;85.50
13332;DHT22;6735;51.456;12.626;2022-11-06T23:35:00;7.70;85.50
13332;DHT22;6735;51.456;12.626;2022-11-06T23:37:26;7.70;85.40
13332;DHT22;6735;51.456;12.626;2022-11-06T23:39:51;7.90;85.30
13332;DHT22;6735;51.456;12.626;2022-11-06T23:42:19;7.80;85.30
13332;DHT22;6735;51.456;12.626;2022-11-06T23:44:45;7.90;85.10
13332;DHT22;6735;51.456;12.626;2022-11-06T23:47:29;8.00;85.00
13332;DHT22;6735;51.456;12.626;2022-11-06T23:49:55;8.00;84.70
13332;DHT22;6735;51.456;12.626;2022-11-06T23:52:20;8.00;84.60
13332;DHT22;6735;51.456;12.626;2022-11-06T23:54:46;8.00;84.60
13332;DHT22;6735;51.456;12.626;2022-11-06T23:57:12;8.10;84.40
13332;DHT22;6735;51.456;12.626;2022-11-06T23:59:38;8.10;84.50
